createdAt,value
2022-11-23T00:16:02.110Z,0
2022-11-23T00:31:04.336Z,0
2022-11-23T00:46:01.592Z,0
2022-11-23T01:00:03.632Z,0
2022-11-23T01:16:01.128Z,0
2022-11-23T01:31:03.181Z,0
2022-11-23T01:46:00.233Z,0
2022-11-23T02:00:02.336Z,0
2022-11-23T02:15:59.811Z,0
2022-11-23T02:31:02.011Z,0
2022-11-23T02:46:04.297Z,0
2022-11-23T03:00:01.363Z,0
2022-11-23T03:16:03.850Z,0
2022-11-23T03:31:01.027Z,0
2022-11-23T03:46:03.334Z,0
2022-11-23T04:00:00.554Z,0
2022-11-23T04:16:02.868Z,0
2022-11-23T04:31:00.056Z,0
2022-11-23T04:46:02.350Z,0
2022-11-23T04:59:59.583Z,0
2022-11-23T05:16:02.117Z,0
2022-11-23T05:31:05.685Z,0
2022-11-23T05:46:01.491Z,0
2022-11-23T06:00:03.560Z,0
2022-11-23T06:16:00.983Z,0
2022-11-23T06:31:03.306Z,0
2022-11-23T06:46:00.360Z,2
2022-11-23T07:00:02.384Z,8
2022-11-23T07:16:04.402Z,10
2022-11-23T07:31:01.626Z,11
2022-11-23T07:46:04.455Z,15
2022-11-23T08:00:00.967Z,16
2022-11-23T08:16:03.301Z,23
2022-11-23T08:31:00.626Z,32
2022-11-23T08:46:06.673Z,52
2022-11-23T09:00:00.032Z,76
2022-11-23T09:16:02.590Z,108
2022-11-23T09:30:59.845Z,109
2022-11-23T09:46:02.153Z,114
2022-11-23T10:00:04.247Z,143
2022-11-23T10:16:01.670Z,147
2022-11-23T10:31:04.063Z,127
2022-11-23T10:46:01.409Z,132
2022-11-23T11:00:03.149Z,115
2022-11-23T11:16:00.567Z,143
2022-11-23T11:31:02.792Z,154
2022-11-23T11:46:27.553Z,154
2022-11-23T12:00:02.364Z,141
2022-11-23T12:15:59.946Z,135
2022-11-23T12:31:02.216Z,134
2022-11-23T12:46:04.302Z,126
2022-11-23T13:00:01.560Z,127
2022-11-23T13:16:04.168Z,126
2022-11-23T13:31:15.014Z,112
2022-11-23T13:46:03.492Z,92
2022-11-23T14:00:00.584Z,78
2022-11-23T14:16:02.997Z,62
2022-11-23T14:31:00.177Z,43
2022-11-23T14:46:02.421Z,28
2022-11-23T14:59:59.596Z,17
2022-11-23T15:16:02.068Z,9
2022-11-23T15:31:04.362Z,1
2022-11-23T15:46:01.678Z,0
2022-11-23T16:00:03.831Z,0
2022-11-23T16:16:01.192Z,0
2022-11-23T16:31:03.458Z,0
2022-11-23T16:46:00.722Z,0
2022-11-23T17:00:02.730Z,0
2022-11-23T17:16:19.566Z,0
2022-11-23T17:31:02.506Z,0
2022-11-23T17:45:59.737Z,0
2022-11-23T18:00:03.521Z,0
2022-11-23T18:16:04.402Z,0
2022-11-23T18:31:01.639Z,0
2022-11-23T18:46:03.800Z,0
2022-11-23T19:00:01.667Z,0
2022-11-23T19:16:03.213Z,0
2022-11-23T19:31:00.464Z,0
2022-11-23T19:46:02.808Z,0
2022-11-23T19:59:59.845Z,0
2022-11-23T20:16:02.490Z,0
2022-11-23T20:30:59.860Z,0
2022-11-23T20:46:02.145Z,0
2022-11-23T21:00:03.991Z,0
2022-11-23T21:16:01.427Z,0
2022-11-23T21:31:03.764Z,0
2022-11-23T21:46:00.973Z,0
2022-11-23T22:00:03.127Z,0
2022-11-23T22:16:00.613Z,0
2022-11-23T22:31:02.778Z,0
2022-11-23T22:46:05.199Z,0
2022-11-23T23:00:01.824Z,0
2022-11-23T23:16:04.277Z,0
2022-11-23T23:31:01.408Z,0
2022-11-23T23:46:04.060Z,0
